ARG1778 SABE-SARI
Flight info
| Callsign | ARG1778 |
|---|---|
| Flight time | 1h 27m |
| Altitude | 33000 |
| Route | LANDA4B LANDA UN785 GEMSU UT667 DOKBA |
| Aircraft | B738/M-SDE2E3FGHIRWXY/LB1 |
Departure
| Time | 2026-04-16 14:01 |
|---|---|
| Airport | Aeroparque Jorge Newbery (SABE) |
Arrival
| Time | 2026-04-16 15:29 |
|---|---|
| Airport | Cataratas Del Iguazú International Airport (SARI) |
| Time | Latitude | Longitude | Altitude | Speed | Heading |
|---|---|---|---|---|---|
| 2026-04-16 13:44 | -34.55784 | -58.41284 | 26 ft | 0 kts | 40° |
| 2026-04-16 13:51 | -34.55796 | -58.41295 | 32 ft | 4 kts | 25° |
| 2026-04-16 13:52 | -34.55819 | -58.41299 | 30 ft | 4 kts | 330° |
| 2026-04-16 13:52 | -34.55833 | -58.41284 | 28 ft | 0 kts | 303° |
| 2026-04-16 13:54 | -34.55823 | -58.41302 | 28 ft | 8 kts | 303° |
| 2026-04-16 13:54 | -34.55774 | -58.41394 | 29 ft | 16 kts | 302° |
| 2026-04-16 13:55 | -34.55725 | -58.41513 | 27 ft | 16 kts | 276° |
| 2026-04-16 13:55 | -34.55780 | -58.41602 | 27 ft | 13 kts | 242° |
| 2026-04-16 13:55 | -34.55755 | -58.41700 | 27 ft | 12 kts | 297° |
| 2026-04-16 13:55 | -34.55714 | -58.41789 | 29 ft | 12 kts | 302° |
| 2026-04-16 13:56 | -34.55667 | -58.41872 | 28 ft | 12 kts | 303° |
| 2026-04-16 13:56 | -34.55624 | -58.41954 | 26 ft | 12 kts | 303° |
| 2026-04-16 13:56 | -34.55569 | -58.42047 | 27 ft | 15 kts | 307° |
| 2026-04-16 13:56 | -34.55505 | -58.42153 | 29 ft | 16 kts | 305° |
| 2026-04-16 13:57 | -34.55437 | -58.42263 | 30 ft | 16 kts | 307° |
| 2026-04-16 13:57 | -34.55381 | -58.42353 | 27 ft | 12 kts | 303° |
| 2026-04-16 13:57 | -34.55372 | -58.42377 | 28 ft | 0 kts | 289° |
| 2026-04-16 13:59 | -34.55363 | -58.42414 | 26 ft | 11 kts | 282° |
| 2026-04-16 13:59 | -34.55394 | -58.42509 | 27 ft | 13 kts | 188° |
| 2026-04-16 14:00 | -34.55411 | -58.42495 | 26 ft | 0 kts | 128° |
| 2026-04-16 14:00 | -34.55434 | -58.42453 | 27 ft | 27 kts | 124° |
| 2026-04-16 14:00 | -34.55668 | -58.42035 | 26 ft | 92 kts | 124° |
| 2026-04-16 14:00 | -34.56134 | -58.41196 | 30 ft | 146 kts | 126° |
| 2026-04-16 14:01 | -34.56719 | -58.40106 | 589 ft | 156 kts | 123° |
| 2026-04-16 14:01 | -34.57255 | -58.38978 | 1589 ft | 153 kts | 117° |
| 2026-04-16 14:01 | -34.57404 | -58.37560 | 2071 ft | 194 kts | 85° |
| 2026-04-16 14:01 | -34.56926 | -58.35888 | 2375 ft | 224 kts | 68° |
| 2026-04-16 14:02 | -34.55864 | -58.34387 | 2745 ft | 256 kts | 38° |
| 2026-04-16 14:02 | -34.54291 | -58.33230 | 3381 ft | 269 kts | 37° |
| 2026-04-16 14:02 | -34.52729 | -58.32004 | 4339 ft | 267 kts | 36° |
| 2026-04-16 14:02 | -34.51145 | -58.30769 | 5154 ft | 272 kts | 35° |
| 2026-04-16 14:03 | -34.49483 | -58.29606 | 5917 ft | 286 kts | 22° |
| 2026-04-16 14:03 | -34.47511 | -58.29421 | 6812 ft | 287 kts | 345° |
| 2026-04-16 14:03 | -34.45683 | -58.30324 | 7799 ft | 287 kts | 336° |
| 2026-04-16 14:03 | -34.43819 | -58.31314 | 8451 ft | 295 kts | 336° |
| 2026-04-16 14:04 | -34.41936 | -58.32298 | 9294 ft | 296 kts | 336° |
| 2026-04-16 14:04 | -34.40013 | -58.33288 | 9956 ft | 302 kts | 336° |
| 2026-04-16 14:04 | -34.38028 | -58.34297 | 10330 ft | 321 kts | 336° |
| 2026-04-16 14:04 | -34.35890 | -58.35373 | 10496 ft | 344 kts | 336° |
| 2026-04-16 14:05 | -34.33617 | -58.36508 | 10820 ft | 360 kts | 336° |
| 2026-04-16 14:05 | -34.31277 | -58.37667 | 11397 ft | 366 kts | 336° |
| 2026-04-16 14:05 | -34.28917 | -58.38832 | 12134 ft | 369 kts | 335° |
| 2026-04-16 14:05 | -34.26529 | -58.40017 | 12839 ft | 372 kts | 335° |
| 2026-04-16 14:06 | -34.24132 | -58.41194 | 13641 ft | 373 kts | 335° |
| 2026-04-16 14:06 | -34.21728 | -58.42399 | 14414 ft | 375 kts | 335° |
| 2026-04-16 14:06 | -34.19320 | -58.43581 | 15107 ft | 377 kts | 336° |
| 2026-04-16 14:06 | -34.16901 | -58.44759 | 15817 ft | 377 kts | 336° |
| 2026-04-16 14:07 | -34.14443 | -58.45958 | 16247 ft | 384 kts | 336° |
| 2026-04-16 14:07 | -34.11955 | -58.47175 | 16845 ft | 386 kts | 336° |
| 2026-04-16 14:07 | -34.09471 | -58.48388 | 17496 ft | 386 kts | 336° |
| 2026-04-16 14:07 | -34.06977 | -58.49606 | 18103 ft | 388 kts | 336° |
| 2026-04-16 14:08 | -34.04454 | -58.50839 | 18432 ft | 395 kts | 336° |
| 2026-04-16 14:08 | -34.01911 | -58.52082 | 18985 ft | 394 kts | 336° |
| 2026-04-16 14:08 | -33.99364 | -58.53326 | 19510 ft | 395 kts | 336° |
| 2026-04-16 14:08 | -33.96803 | -58.54575 | 19980 ft | 398 kts | 336° |
| 2026-04-16 14:09 | -33.95065 | -58.55422 | 20275 ft | 400 kts | 336° |
| 2026-04-16 14:09 | -33.92501 | -58.56641 | 20720 ft | 403 kts | 339° |
| 2026-04-16 14:09 | -33.89774 | -58.57487 | 21193 ft | 408 kts | 348° |
| 2026-04-16 14:09 | -33.86933 | -58.57793 | 21663 ft | 412 kts | 355° |
| 2026-04-16 14:10 | -33.84061 | -58.57909 | 22092 ft | 415 kts | 355° |
| 2026-04-16 14:10 | -33.81168 | -58.58003 | 22531 ft | 417 kts | 355° |
| 2026-04-16 14:10 | -33.78260 | -58.58097 | 22979 ft | 419 kts | 355° |
| 2026-04-16 14:10 | -33.75338 | -58.58201 | 23398 ft | 421 kts | 355° |
| 2026-04-16 14:11 | -33.72405 | -58.58315 | 23752 ft | 423 kts | 355° |
| 2026-04-16 14:11 | -33.69461 | -58.58436 | 24114 ft | 424 kts | 355° |
| 2026-04-16 14:11 | -33.66510 | -58.58562 | 24472 ft | 425 kts | 355° |
| 2026-04-16 14:11 | -33.63548 | -58.58690 | 24822 ft | 427 kts | 354° |
| 2026-04-16 14:12 | -33.60571 | -58.58821 | 25142 ft | 429 kts | 354° |
| 2026-04-16 14:12 | -33.57586 | -58.58951 | 25495 ft | 430 kts | 354° |
| 2026-04-16 14:12 | -33.54589 | -58.59082 | 25843 ft | 431 kts | 354° |
| 2026-04-16 14:12 | -33.51587 | -58.59213 | 26181 ft | 433 kts | 354° |
| 2026-04-16 14:13 | -33.48572 | -58.59344 | 26515 ft | 434 kts | 354° |
| 2026-04-16 14:13 | -33.45549 | -58.59476 | 26857 ft | 436 kts | 354° |
| 2026-04-16 14:13 | -33.42516 | -58.59608 | 27191 ft | 437 kts | 354° |
| 2026-04-16 14:13 | -33.39477 | -58.59739 | 27491 ft | 439 kts | 354° |
| 2026-04-16 14:14 | -33.36412 | -58.59872 | 27776 ft | 441 kts | 354° |
| 2026-04-16 14:14 | -33.33344 | -58.60005 | 28071 ft | 442 kts | 354° |
| 2026-04-16 14:14 | -33.30267 | -58.60139 | 28377 ft | 443 kts | 354° |
| 2026-04-16 14:14 | -33.27182 | -58.60272 | 28674 ft | 445 kts | 354° |
| 2026-04-16 14:15 | -33.24086 | -58.60406 | 28981 ft | 446 kts | 354° |
| 2026-04-16 14:15 | -33.20975 | -58.60540 | 29276 ft | 448 kts | 354° |
| 2026-04-16 14:15 | -33.17855 | -58.60675 | 29506 ft | 449 kts | 354° |
| 2026-04-16 14:15 | -33.14729 | -58.60809 | 29842 ft | 449 kts | 354° |
| 2026-04-16 14:16 | -33.11616 | -58.60943 | 30209 ft | 447 kts | 354° |
| 2026-04-16 14:16 | -33.08519 | -58.61075 | 30601 ft | 444 kts | 354° |
| 2026-04-16 14:16 | -33.05447 | -58.61207 | 31002 ft | 441 kts | 354° |
| 2026-04-16 14:16 | -33.02382 | -58.61248 | 31387 ft | 441 kts | 360° |
| 2026-04-16 14:17 | -32.99363 | -58.60817 | 31682 ft | 445 kts | 7° |
| 2026-04-16 14:17 | -32.96323 | -58.59834 | 31938 ft | 448 kts | 13° |
| 2026-04-16 14:17 | -32.93384 | -58.58736 | 32220 ft | 449 kts | 13° |
| 2026-04-16 14:17 | -32.90411 | -58.57612 | 32525 ft | 448 kts | 13° |
| 2026-04-16 14:18 | -32.87444 | -58.56497 | 32861 ft | 447 kts | 13° |
| 2026-04-16 14:18 | -32.84480 | -58.55396 | 33204 ft | 446 kts | 13° |
| 2026-04-16 14:18 | -32.81521 | -58.54308 | 33520 ft | 445 kts | 13° |
| 2026-04-16 14:18 | -32.78567 | -58.53230 | 33810 ft | 444 kts | 13° |
| 2026-04-16 14:19 | -32.75611 | -58.52156 | 34042 ft | 444 kts | 13° |
| 2026-04-16 14:19 | -32.72658 | -58.51086 | 34245 ft | 444 kts | 13° |
| 2026-04-16 14:19 | -32.69703 | -58.50015 | 34433 ft | 444 kts | 12° |
| 2026-04-16 14:19 | -32.66744 | -58.48944 | 34618 ft | 445 kts | 12° |
| 2026-04-16 14:20 | -32.63781 | -58.47872 | 34846 ft | 444 kts | 12° |
| 2026-04-16 14:20 | -32.60833 | -58.46805 | 35093 ft | 443 kts | 12° |
| 2026-04-16 14:20 | -32.57888 | -58.45740 | 35324 ft | 442 kts | 12° |
| 2026-04-16 14:20 | -32.54944 | -58.44676 | 35511 ft | 442 kts | 12° |
| 2026-04-16 14:21 | -32.52002 | -58.43614 | 35703 ft | 442 kts | 12° |
| 2026-04-16 14:21 | -32.49068 | -58.42555 | 35920 ft | 442 kts | 12° |
| 2026-04-16 14:21 | -32.46124 | -58.41493 | 36131 ft | 441 kts | 12° |
| 2026-04-16 14:21 | -32.43182 | -58.40433 | 36285 ft | 442 kts | 12° |
| 2026-04-16 14:22 | -32.40236 | -58.39372 | 36453 ft | 442 kts | 12° |
| 2026-04-16 14:22 | -32.37296 | -58.38313 | 36657 ft | 442 kts | 12° |
| 2026-04-16 14:22 | -32.34357 | -58.37256 | 36824 ft | 442 kts | 12° |
| 2026-04-16 14:22 | -32.31405 | -58.36196 | 36806 ft | 444 kts | 12° |
| 2026-04-16 14:23 | -32.25496 | -58.34067 | 36809 ft | 442 kts | 12° |
| 2026-04-16 14:23 | -32.19639 | -58.31953 | 36815 ft | 438 kts | 12° |
| 2026-04-16 14:24 | -32.13821 | -58.29857 | 36817 ft | 435 kts | 12° |
| 2026-04-16 14:24 | -32.08043 | -58.27780 | 36821 ft | 434 kts | 12° |
| 2026-04-16 14:25 | -32.02270 | -58.25708 | 36828 ft | 434 kts | 12° |
| 2026-04-16 14:25 | -31.96487 | -58.23636 | 36826 ft | 435 kts | 12° |
| 2026-04-16 14:26 | -31.90675 | -58.21556 | 36812 ft | 438 kts | 11° |
| 2026-04-16 14:26 | -31.84831 | -58.19467 | 36815 ft | 440 kts | 11° |
| 2026-04-16 14:27 | -31.78954 | -58.17368 | 36836 ft | 443 kts | 11° |
| 2026-04-16 14:27 | -31.73039 | -58.15258 | 36834 ft | 445 kts | 11° |
| 2026-04-16 14:28 | -31.67132 | -58.13154 | 36804 ft | 447 kts | 11° |
| 2026-04-16 14:28 | -31.61170 | -58.11033 | 36807 ft | 448 kts | 11° |
| 2026-04-16 14:29 | -31.55198 | -58.08910 | 36804 ft | 449 kts | 11° |
| 2026-04-16 14:29 | -31.49219 | -58.06788 | 36802 ft | 448 kts | 11° |
| 2026-04-16 14:30 | -31.43254 | -58.04674 | 36800 ft | 447 kts | 11° |
| 2026-04-16 14:30 | -31.37307 | -58.02569 | 36792 ft | 446 kts | 11° |
| 2026-04-16 14:31 | -31.31373 | -58.00472 | 36829 ft | 445 kts | 11° |
| 2026-04-16 14:31 | -31.25462 | -57.98386 | 36832 ft | 443 kts | 11° |
| 2026-04-16 14:32 | -31.19560 | -57.96307 | 36828 ft | 443 kts | 11° |
| 2026-04-16 14:32 | -31.13667 | -57.94233 | 36818 ft | 442 kts | 10° |
| 2026-04-16 14:33 | -31.07783 | -57.92164 | 36809 ft | 442 kts | 10° |
| 2026-04-16 14:33 | -31.01899 | -57.90099 | 36830 ft | 442 kts | 10° |
| 2026-04-16 14:34 | -30.96004 | -57.88033 | 36833 ft | 443 kts | 10° |
| 2026-04-16 14:34 | -30.90092 | -57.85963 | 36833 ft | 444 kts | 11° |
| 2026-04-16 14:35 | -30.84165 | -57.83890 | 36834 ft | 446 kts | 10° |
| 2026-04-16 14:35 | -30.78213 | -57.81811 | 36834 ft | 447 kts | 10° |
| 2026-04-16 14:36 | -30.72245 | -57.79728 | 36836 ft | 449 kts | 10° |
| 2026-04-16 14:36 | -30.66255 | -57.77637 | 36838 ft | 450 kts | 11° |
| 2026-04-16 14:37 | -30.60259 | -57.75533 | 36824 ft | 450 kts | 11° |
| 2026-04-16 14:37 | -30.54256 | -57.73427 | 36835 ft | 451 kts | 11° |
| 2026-04-16 14:38 | -30.48245 | -57.71322 | 36838 ft | 451 kts | 10° |
| 2026-04-16 14:38 | -30.42234 | -57.69220 | 36835 ft | 451 kts | 10° |
| 2026-04-16 14:39 | -30.36227 | -57.67122 | 36829 ft | 451 kts | 11° |
| 2026-04-16 14:39 | -30.30227 | -57.65029 | 36831 ft | 450 kts | 11° |
| 2026-04-16 14:40 | -30.24428 | -57.62164 | 36838 ft | 462 kts | 27° |
| 2026-04-16 14:40 | -30.19116 | -57.57929 | 36842 ft | 464 kts | 29° |
| 2026-04-16 14:41 | -30.13839 | -57.53621 | 36845 ft | 464 kts | 29° |
| 2026-04-16 14:41 | -30.08536 | -57.49355 | 36850 ft | 465 kts | 29° |
| 2026-04-16 14:42 | -30.03202 | -57.45112 | 36841 ft | 465 kts | 28° |
| 2026-04-16 14:42 | -29.97865 | -57.40884 | 36857 ft | 466 kts | 28° |
| 2026-04-16 14:43 | -29.92516 | -57.36653 | 36841 ft | 467 kts | 28° |
| 2026-04-16 14:43 | -29.87158 | -57.32419 | 36850 ft | 467 kts | 28° |
| 2026-04-16 14:44 | -29.81794 | -57.28185 | 36852 ft | 468 kts | 28° |
| 2026-04-16 14:44 | -29.76419 | -57.23947 | 36851 ft | 468 kts | 28° |
| 2026-04-16 14:45 | -29.71039 | -57.19710 | 36853 ft | 469 kts | 28° |
| 2026-04-16 14:45 | -29.65654 | -57.15475 | 36859 ft | 469 kts | 28° |
| 2026-04-16 14:46 | -29.60265 | -57.11244 | 36856 ft | 470 kts | 28° |
| 2026-04-16 14:46 | -29.54868 | -57.07011 | 36855 ft | 470 kts | 28° |
| 2026-04-16 14:47 | -29.49464 | -57.02778 | 36857 ft | 470 kts | 28° |
| 2026-04-16 14:47 | -29.44057 | -56.98549 | 36854 ft | 471 kts | 28° |
| 2026-04-16 14:48 | -29.38645 | -56.94321 | 36861 ft | 471 kts | 28° |
| 2026-04-16 14:48 | -29.33233 | -56.90099 | 36861 ft | 471 kts | 28° |
| 2026-04-16 14:49 | -29.27816 | -56.85878 | 36859 ft | 471 kts | 28° |
| 2026-04-16 14:49 | -29.22400 | -56.81663 | 36855 ft | 471 kts | 28° |
| 2026-04-16 14:50 | -29.16985 | -56.77455 | 36865 ft | 470 kts | 28° |
| 2026-04-16 14:50 | -29.11566 | -56.73250 | 36859 ft | 470 kts | 28° |
| 2026-04-16 14:51 | -29.06150 | -56.69051 | 36872 ft | 470 kts | 28° |
| 2026-04-16 14:51 | -29.00729 | -56.64854 | 36873 ft | 471 kts | 28° |
| 2026-04-16 14:53 | -28.79909 | -56.48793 | 36866 ft | 472 kts | 28° |
| 2026-04-16 14:54 | -28.74463 | -56.44609 | 36875 ft | 472 kts | 28° |
| 2026-04-16 14:54 | -28.69012 | -56.40426 | 36891 ft | 473 kts | 28° |
| 2026-04-16 14:55 | -28.63553 | -56.36241 | 36888 ft | 473 kts | 28° |
| 2026-04-16 14:55 | -28.58076 | -56.32072 | 36891 ft | 472 kts | 25° |
| 2026-04-16 14:56 | -28.52286 | -56.28663 | 36885 ft | 468 kts | 20° |
| 2026-04-16 14:56 | -28.46418 | -56.25483 | 36894 ft | 468 kts | 20° |
| 2026-04-16 14:57 | -28.40551 | -56.22269 | 36894 ft | 469 kts | 20° |
| 2026-04-16 14:57 | -28.34693 | -56.19007 | 36898 ft | 469 kts | 20° |
| 2026-04-16 14:58 | -28.25907 | -56.14087 | 36901 ft | 470 kts | 20° |
| 2026-04-16 14:59 | -28.20083 | -56.10829 | 36894 ft | 469 kts | 20° |
| 2026-04-16 14:59 | -28.14225 | -56.07558 | 36905 ft | 469 kts | 20° |
| 2026-04-16 15:00 | -28.08361 | -56.04290 | 36910 ft | 470 kts | 20° |
| 2026-04-16 15:00 | -28.02496 | -56.01023 | 36913 ft | 470 kts | 20° |
| 2026-04-16 15:01 | -27.96633 | -55.97764 | 36916 ft | 470 kts | 20° |
| 2026-04-16 15:01 | -27.90770 | -55.94507 | 36909 ft | 469 kts | 20° |
| 2026-04-16 15:02 | -27.84905 | -55.91254 | 36916 ft | 469 kts | 20° |
| 2026-04-16 15:02 | -27.79043 | -55.88006 | 36919 ft | 469 kts | 20° |
| 2026-04-16 15:03 | -27.73182 | -55.84763 | 36920 ft | 470 kts | 20° |
| 2026-04-16 15:03 | -27.67314 | -55.81519 | 36918 ft | 469 kts | 20° |
| 2026-04-16 15:04 | -27.61445 | -55.78279 | 36901 ft | 469 kts | 20° |
| 2026-04-16 15:04 | -27.55580 | -55.75046 | 36923 ft | 469 kts | 20° |
| 2026-04-16 15:05 | -27.49709 | -55.71813 | 36903 ft | 471 kts | 20° |
| 2026-04-16 15:05 | -27.46738 | -55.70181 | 36390 ft | 478 kts | 20° |
| 2026-04-16 15:05 | -27.43751 | -55.68540 | 35879 ft | 476 kts | 21° |
| 2026-04-16 15:05 | -27.40778 | -55.66905 | 35276 ft | 476 kts | 21° |
| 2026-04-16 15:06 | -27.37797 | -55.65267 | 34669 ft | 478 kts | 21° |
| 2026-04-16 15:06 | -27.34802 | -55.63623 | 33997 ft | 480 kts | 21° |
| 2026-04-16 15:06 | -27.31796 | -55.61974 | 33286 ft | 481 kts | 21° |
| 2026-04-16 15:06 | -27.28785 | -55.60322 | 32589 ft | 482 kts | 21° |
| 2026-04-16 15:07 | -27.25772 | -55.58671 | 31902 ft | 483 kts | 22° |
| 2026-04-16 15:07 | -27.22748 | -55.57015 | 31205 ft | 484 kts | 22° |
| 2026-04-16 15:07 | -27.19717 | -55.55356 | 30466 ft | 486 kts | 22° |
| 2026-04-16 15:07 | -27.16682 | -55.53696 | 29944 ft | 483 kts | 22° |
| 2026-04-16 15:08 | -27.13666 | -55.52046 | 29307 ft | 481 kts | 22° |
| 2026-04-16 15:08 | -27.10672 | -55.50408 | 28767 ft | 477 kts | 22° |
| 2026-04-16 15:08 | -27.07701 | -55.48785 | 28236 ft | 473 kts | 22° |
| 2026-04-16 15:08 | -27.04757 | -55.47177 | 27692 ft | 469 kts | 22° |
| 2026-04-16 15:09 | -27.01833 | -55.45583 | 27188 ft | 465 kts | 22° |
| 2026-04-16 15:09 | -26.98933 | -55.44002 | 26679 ft | 462 kts | 22° |
| 2026-04-16 15:09 | -26.96091 | -55.42455 | 26192 ft | 459 kts | 22° |
| 2026-04-16 15:09 | -26.93227 | -55.40896 | 25684 ft | 457 kts | 22° |
| 2026-04-16 15:10 | -26.90337 | -55.39324 | 25158 ft | 455 kts | 22° |
| 2026-04-16 15:10 | -26.87535 | -55.37802 | 24646 ft | 453 kts | 22° |
| 2026-04-16 15:10 | -26.84703 | -55.36264 | 24135 ft | 452 kts | 22° |
| 2026-04-16 15:10 | -26.81878 | -55.34729 | 23617 ft | 450 kts | 22° |
| 2026-04-16 15:11 | -26.79067 | -55.33204 | 23034 ft | 449 kts | 22° |
| 2026-04-16 15:11 | -26.76268 | -55.31685 | 22482 ft | 445 kts | 22° |
| 2026-04-16 15:11 | -26.73490 | -55.30178 | 21977 ft | 442 kts | 22° |
| 2026-04-16 15:11 | -26.70738 | -55.28686 | 21469 ft | 438 kts | 22° |
| 2026-04-16 15:12 | -26.67999 | -55.27203 | 20976 ft | 435 kts | 23° |
| 2026-04-16 15:12 | -26.65285 | -55.25733 | 20486 ft | 432 kts | 22° |
| 2026-04-16 15:12 | -26.62586 | -55.24273 | 19994 ft | 429 kts | 22° |
| 2026-04-16 15:12 | -26.59906 | -55.22823 | 19486 ft | 427 kts | 23° |
| 2026-04-16 15:13 | -26.57237 | -55.21381 | 18986 ft | 425 kts | 23° |
| 2026-04-16 15:13 | -26.54580 | -55.19946 | 18485 ft | 423 kts | 23° |
| 2026-04-16 15:13 | -26.51936 | -55.18519 | 17963 ft | 421 kts | 23° |
| 2026-04-16 15:13 | -26.49308 | -55.17100 | 17433 ft | 418 kts | 23° |
| 2026-04-16 15:14 | -26.46699 | -55.15693 | 16931 ft | 415 kts | 22° |
| 2026-04-16 15:14 | -26.44113 | -55.14298 | 16441 ft | 411 kts | 22° |
| 2026-04-16 15:14 | -26.41546 | -55.12914 | 15962 ft | 408 kts | 22° |
| 2026-04-16 15:14 | -26.38999 | -55.11542 | 15491 ft | 405 kts | 22° |
| 2026-04-16 15:15 | -26.36467 | -55.10180 | 15007 ft | 403 kts | 22° |
| 2026-04-16 15:15 | -26.33951 | -55.08826 | 14528 ft | 400 kts | 22° |
| 2026-04-16 15:15 | -26.31464 | -55.07488 | 14040 ft | 393 kts | 22° |
| 2026-04-16 15:15 | -26.29025 | -55.06175 | 13540 ft | 385 kts | 22° |
| 2026-04-16 15:16 | -26.26638 | -55.04891 | 13055 ft | 377 kts | 22° |
| 2026-04-16 15:16 | -26.24298 | -55.03634 | 12592 ft | 370 kts | 22° |
| 2026-04-16 15:16 | -26.22005 | -55.02401 | 12143 ft | 363 kts | 22° |
| 2026-04-16 15:16 | -26.19754 | -55.01194 | 11702 ft | 356 kts | 22° |
| 2026-04-16 15:17 | -26.17544 | -55.00009 | 11275 ft | 349 kts | 22° |
| 2026-04-16 15:17 | -26.15380 | -54.98849 | 10862 ft | 342 kts | 22° |
| 2026-04-16 15:17 | -26.13278 | -54.97721 | 10711 ft | 328 kts | 22° |
| 2026-04-16 15:17 | -26.11260 | -54.96638 | 10556 ft | 316 kts | 21° |
| 2026-04-16 15:18 | -26.09317 | -54.95596 | 10411 ft | 304 kts | 21° |
| 2026-04-16 15:18 | -26.07443 | -54.94592 | 10284 ft | 293 kts | 21° |
| 2026-04-16 15:18 | -26.05636 | -54.93625 | 10178 ft | 284 kts | 21° |
| 2026-04-16 15:18 | -26.03901 | -54.92698 | 10058 ft | 278 kts | 21° |
| 2026-04-16 15:19 | -26.02149 | -54.91763 | 9935 ft | 275 kts | 21° |
| 2026-04-16 15:19 | -26.00411 | -54.90838 | 9636 ft | 279 kts | 21° |
| 2026-04-16 15:19 | -25.98659 | -54.89905 | 9342 ft | 280 kts | 21° |
| 2026-04-16 15:19 | -25.96923 | -54.88979 | 9064 ft | 280 kts | 21° |
| 2026-04-16 15:20 | -25.95166 | -54.88041 | 8783 ft | 281 kts | 21° |
| 2026-04-16 15:20 | -25.93401 | -54.87100 | 8504 ft | 282 kts | 21° |
| 2026-04-16 15:20 | -25.91624 | -54.86152 | 8206 ft | 284 kts | 21° |
| 2026-04-16 15:20 | -25.89839 | -54.85200 | 7921 ft | 286 kts | 21° |
| 2026-04-16 15:21 | -25.88041 | -54.84242 | 7633 ft | 288 kts | 20° |
| 2026-04-16 15:21 | -25.86220 | -54.83279 | 7324 ft | 291 kts | 22° |
| 2026-04-16 15:21 | -25.84388 | -54.82296 | 7000 ft | 292 kts | 21° |
| 2026-04-16 15:21 | -25.82562 | -54.81320 | 6698 ft | 289 kts | 21° |
| 2026-04-16 15:22 | -25.80780 | -54.80367 | 6401 ft | 280 kts | 21° |
| 2026-04-16 15:22 | -25.79044 | -54.79441 | 6086 ft | 273 kts | 21° |
| 2026-04-16 15:22 | -25.77352 | -54.78540 | 5795 ft | 267 kts | 21° |
| 2026-04-16 15:22 | -25.75709 | -54.77665 | 5547 ft | 256 kts | 21° |
| 2026-04-16 15:23 | -25.74139 | -54.76829 | 5454 ft | 246 kts | 21° |
| 2026-04-16 15:23 | -25.72620 | -54.76021 | 5333 ft | 239 kts | 20° |
| 2026-04-16 15:23 | -25.71147 | -54.75238 | 5222 ft | 231 kts | 20° |
| 2026-04-16 15:23 | -25.69752 | -54.74393 | 5098 ft | 229 kts | 35° |
| 2026-04-16 15:24 | -25.68855 | -54.72943 | 4922 ft | 229 kts | 61° |
| 2026-04-16 15:24 | -25.68259 | -54.71329 | 4691 ft | 222 kts | 60° |
| 2026-04-16 15:24 | -25.67656 | -54.69784 | 4435 ft | 215 kts | 62° |
| 2026-04-16 15:24 | -25.67092 | -54.68277 | 4206 ft | 208 kts | 62° |
| 2026-04-16 15:25 | -25.66546 | -54.66819 | 3985 ft | 202 kts | 62° |
| 2026-04-16 15:25 | -25.66280 | -54.65319 | 3749 ft | 199 kts | 97° |
| 2026-04-16 15:25 | -25.66810 | -54.63877 | 3761 ft | 206 kts | 115° |
| 2026-04-16 15:25 | -25.67445 | -54.62404 | 3490 ft | 209 kts | 112° |
| 2026-04-16 15:26 | -25.68037 | -54.60983 | 3272 ft | 198 kts | 112° |
| 2026-04-16 15:26 | -25.68603 | -54.59628 | 3005 ft | 190 kts | 112° |
| 2026-04-16 15:26 | -25.69149 | -54.58314 | 2739 ft | 186 kts | 111° |
| 2026-04-16 15:26 | -25.69676 | -54.57053 | 2554 ft | 177 kts | 111° |
| 2026-04-16 15:27 | -25.70198 | -54.55798 | 2312 ft | 179 kts | 113° |
| 2026-04-16 15:27 | -25.70714 | -54.54564 | 2053 ft | 175 kts | 112° |
| 2026-04-16 15:27 | -25.71218 | -54.53357 | 1834 ft | 170 kts | 111° |
| 2026-04-16 15:27 | -25.71709 | -54.52181 | 1649 ft | 166 kts | 113° |
| 2026-04-16 15:28 | -25.72191 | -54.51002 | 1425 ft | 170 kts | 113° |
| 2026-04-16 15:28 | -25.72687 | -54.49825 | 1175 ft | 166 kts | 113° |
| 2026-04-16 15:28 | -25.73171 | -54.48683 | 940 ft | 162 kts | 111° |
| 2026-04-16 15:28 | -25.73609 | -54.47632 | 927 ft | 131 kts | 115° |
| 2026-04-16 15:29 | -25.73886 | -54.46971 | 928 ft | 40 kts | 115° |
| 2026-04-16 15:29 | -25.73914 | -54.46854 | 930 ft | 7 kts | 31° |
| 2026-04-16 15:29 | -25.73895 | -54.46896 | 929 ft | 8 kts | 272° |
| 2026-04-16 15:29 | -25.73884 | -54.46971 | 929 ft | 12 kts | 288° |
| 2026-04-16 15:30 | -25.73843 | -54.47072 | 928 ft | 17 kts | 294° |
| 2026-04-16 15:30 | -25.73781 | -54.47209 | 929 ft | 22 kts | 305° |
| 2026-04-16 15:30 | -25.73674 | -54.47315 | 928 ft | 19 kts | 323° |
| 2026-04-16 15:30 | -25.73581 | -54.47390 | 927 ft | 18 kts | 324° |
| 2026-04-16 15:31 | -25.73479 | -54.47470 | 927 ft | 18 kts | 325° |
| 2026-04-16 15:31 | -25.73381 | -54.47546 | 928 ft | 17 kts | 324° |
| 2026-04-16 15:31 | -25.73306 | -54.47615 | 927 ft | 11 kts | 304° |
| 2026-04-16 15:31 | -25.73273 | -54.47684 | 927 ft | 9 kts | 311° |
| 2026-04-16 15:32 | -25.73241 | -54.47683 | 929 ft | 2 kts | 21° |
| 2026-04-16 15:32 | -25.73232 | -54.47679 | 926 ft | 2 kts | 20° |
| 2026-04-16 15:32 | -25.73227 | -54.47676 | 926 ft | 1 kts | 25° |
| 2026-04-16 15:32 | -25.73226 | -54.47676 | 926 ft | 0 kts | 25° |